sensor_id;sensor_type;location;lat;lon;timestamp;pressure;altitude;pressure_sealevel;temperature;humidity
34241;BME280;20503;50.200;19.508;2024-02-15T00:00:03;101706.41;;;11.43;44.23
34241;BME280;20503;50.200;19.508;2024-02-15T00:01:05;101700.05;;;11.68;44.13
34241;BME280;20503;50.200;19.508;2024-02-15T00:02:11;101701.49;;;11.60;44.31
34241;BME280;20503;50.200;19.508;2024-02-15T00:03:12;101702.77;;;11.68;43.19
34241;BME280;20503;50.200;19.508;2024-02-15T00:04:24;101706.10;;;11.84;43.35
34241;BME280;20503;50.200;19.508;2024-02-15T00:05:28;101699.88;;;11.58;43.69
34241;BME280;20503;50.200;19.508;2024-02-15T00:06:29;101686.01;;;11.63;43.78
34241;BME280;20503;50.200;19.508;2024-02-15T00:07:30;101699.15;;;11.43;43.83
34241;BME280;20503;50.200;19.508;2024-02-15T00:08:32;101696.11;;;11.48;44.38
34241;BME280;20503;50.200;19.508;2024-02-15T00:09:35;101695.73;;;11.65;43.51
34241;BME280;20503;50.200;19.508;2024-02-15T00:10:37;101698.26;;;11.55;43.94
34241;BME280;20503;50.200;19.508;2024-02-15T00:11:38;101700.38;;;11.26;44.66
34241;BME280;20503;50.200;19.508;2024-02-15T00:12:40;101700.94;;;11.19;44.61
34241;BME280;20503;50.200;19.508;2024-02-15T00:13:41;101693.84;;;11.42;43.64
34241;BME280;20503;50.200;19.508;2024-02-15T00:14:45;101697.22;;;11.32;44.81
34241;BME280;20503;50.200;19.508;2024-02-15T00:15:46;101699.59;;;11.37;44.88
34241;BME280;20503;50.200;19.508;2024-02-15T00:16:50;101693.96;;;11.40;44.77
34241;BME280;20503;50.200;19.508;2024-02-15T00:17:51;101692.98;;;11.41;44.77
34241;BME280;20503;50.200;19.508;2024-02-15T00:18:53;101694.51;;;11.32;45.01
34241;BME280;20503;50.200;19.508;2024-02-15T00:19:56;101685.45;;;11.08;45.28
34241;BME280;20503;50.200;19.508;2024-02-15T00:21:17;101700.80;;;11.20;45.29
34241;BME280;20503;50.200;19.508;2024-02-15T00:22:19;101694.88;;;11.02;45.38
34241;BME280;20503;50.200;19.508;2024-02-15T00:23:22;101698.87;;;11.22;44.66
34241;BME280;20503;50.200;19.508;2024-02-15T00:24:24;101701.64;;;11.33;45.63
34241;BME280;20503;50.200;19.508;2024-02-15T00:25:25;101695.38;;;11.46;44.93
34241;BME280;20503;50.200;19.508;2024-02-15T00:26:26;101693.19;;;11.51;44.06
34241;BME280;20503;50.200;19.508;2024-02-15T00:27:28;101691.13;;;11.42;44.63
34241;BME280;20503;50.200;19.508;2024-02-15T00:28:29;101698.59;;;11.51;44.71
34241;BME280;20503;50.200;19.508;2024-02-15T00:29:31;101700.20;;;11.53;45.00
34241;BME280;20503;50.200;19.508;2024-02-15T00:30:35;101706.38;;;11.55;45.10
34241;BME280;20503;50.200;19.508;2024-02-15T00:31:38;101702.53;;;11.34;44.60
34241;BME280;20503;50.200;19.508;2024-02-15T00:32:39;101704.66;;;11.42;45.08
34241;BME280;20503;50.200;19.508;2024-02-15T00:33:48;101710.19;;;11.40;44.89
34241;BME280;20503;50.200;19.508;2024-02-15T00:34:49;101705.12;;;11.35;45.63
34241;BME280;20503;50.200;19.508;2024-02-15T00:35:50;101701.89;;;11.30;45.77
34241;BME280;20503;50.200;19.508;2024-02-15T00:36:53;101711.70;;;11.44;44.66
34241;BME280;20503;50.200;19.508;2024-02-15T00:37:54;101704.53;;;11.56;44.84
34241;BME280;20503;50.200;19.508;2024-02-15T00:38:56;101705.52;;;11.55;45.01
34241;BME280;20503;50.200;19.508;2024-02-15T00:39:57;101714.06;;;11.49;44.63
34241;BME280;20503;50.200;19.508;2024-02-15T00:40:59;101707.61;;;11.39;44.95
34241;BME280;20503;50.200;19.508;2024-02-15T00:42:00;101708.95;;;11.57;44.94
34241;BME280;20503;50.200;19.508;2024-02-15T00:43:02;101718.15;;;11.67;44.89
34241;BME280;20503;50.200;19.508;2024-02-15T00:44:03;101709.73;;;11.59;44.93
34241;BME280;20503;50.200;19.508;2024-02-15T00:45:24;101713.94;;;11.63;44.80
34241;BME280;20503;50.200;19.508;2024-02-15T00:46:25;101708.27;;;11.79;44.13
34241;BME280;20503;50.200;19.508;2024-02-15T00:47:30;101706.52;;;11.91;44.77
34241;BME280;20503;50.200;19.508;2024-02-15T00:48:31;101710.82;;;11.93;44.34
34241;BME280;20503;50.200;19.508;2024-02-15T00:49:33;101711.65;;;12.06;44.40
34241;BME280;20503;50.200;19.508;2024-02-15T00:50:37;101710.38;;;11.99;44.49
34241;BME280;20503;50.200;19.508;2024-02-15T00:51:38;101705.47;;;12.04;44.03
34241;BME280;20503;50.200;19.508;2024-02-15T00:52:47;101722.65;;;12.16;43.75
34241;BME280;20503;50.200;19.508;2024-02-15T00:53:48;101707.60;;;12.12;44.23
34241;BME280;20503;50.200;19.508;2024-02-15T00:54:50;101718.57;;;12.10;43.51
34241;BME280;20503;50.200;19.508;2024-02-15T00:55:51;101724.08;;;12.09;44.36
34241;BME280;20503;50.200;19.508;2024-02-15T00:57:17;101721.48;;;11.83;44.53
34241;BME280;20503;50.200;19.508;2024-02-15T00:58:20;101723.52;;;11.80;44.73
34241;BME280;20503;50.200;19.508;2024-02-15T00:59:24;101725.48;;;11.91;44.78
34241;BME280;20503;50.200;19.508;2024-02-15T01:00:25;101727.95;;;11.81;44.58
34241;BME280;20503;50.200;19.508;2024-02-15T01:01:27;101720.73;;;11.69;45.00
34241;BME280;20503;50.200;19.508;2024-02-15T01:02:29;101726.09;;;11.45;44.97
34241;BME280;20503;50.200;19.508;2024-02-15T01:03:31;101719.13;;;11.66;44.93
34241;BME280;20503;50.200;19.508;2024-02-15T01:04:33;101724.38;;;11.80;44.98
34241;BME280;20503;50.200;19.508;2024-02-15T01:05:35;101723.12;;;11.86;45.16
34241;BME280;20503;50.200;19.508;2024-02-15T01:06:37;101720.56;;;11.96;44.38
34241;BME280;20503;50.200;19.508;2024-02-15T01:07:39;101716.44;;;12.03;44.72
34241;BME280;20503;50.200;19.508;2024-02-15T01:08:55;101726.16;;;12.05;44.32
34241;BME280;20503;50.200;19.508;2024-02-15T01:09:56;101715.00;;;12.10;44.83
34241;BME280;20503;50.200;19.508;2024-02-15T01:10:57;101717.38;;;12.26;44.18
34241;BME280;20503;50.200;19.508;2024-02-15T01:11:58;101717.58;;;12.12;43.82
34241;BME280;20503;50.200;19.508;2024-02-15T01:13:02;101726.57;;;12.12;44.21
34241;BME280;20503;50.200;19.508;2024-02-15T01:14:04;101723.34;;;12.07;44.18
34241;BME280;20503;50.200;19.508;2024-02-15T01:15:05;101737.63;;;12.09;44.17
34241;BME280;20503;50.200;19.508;2024-02-15T01:16:07;101725.77;;;11.99;44.52
34241;BME280;20503;50.200;19.508;2024-02-15T01:17:09;101725.64;;;12.24;43.85
34241;BME280;20503;50.200;19.508;2024-02-15T01:18:10;101722.65;;;12.16;44.38
34241;BME280;20503;50.200;19.508;2024-02-15T01:19:12;101717.67;;;11.73;45.41
34241;BME280;20503;50.200;19.508;2024-02-15T01:20:14;101721.30;;;11.98;44.62
34241;BME280;20503;50.200;19.508;2024-02-15T01:21:16;101714.02;;;12.11;44.23
34241;BME280;20503;50.200;19.508;2024-02-15T01:22:17;101721.50;;;12.07;44.43
34241;BME280;20503;50.200;19.508;2024-02-15T01:23:19;101728.06;;;12.16;44.20
34241;BME280;20503;50.200;19.508;2024-02-15T01:24:23;101724.38;;;12.17;44.15
34241;BME280;20503;50.200;19.508;2024-02-15T01:25:27;101724.78;;;12.00;44.83
34241;BME280;20503;50.200;19.508;2024-02-15T01:26:29;101720.29;;;12.12;44.82
34241;BME280;20503;50.200;19.508;2024-02-15T01:27:30;101726.16;;;12.05;44.96
34241;BME280;20503;50.200;19.508;2024-02-15T01:28:32;101724.84;;;12.11;45.82
34241;BME280;20503;50.200;19.508;2024-02-15T01:29:33;101730.32;;;12.22;44.24
34241;BME280;20503;50.200;19.508;2024-02-15T01:30:35;101722.07;;;12.24;43.84
34241;BME280;20503;50.200;19.508;2024-02-15T01:31:36;101735.47;;;11.65;44.92
34241;BME280;20503;50.200;19.508;2024-02-15T01:32:40;101729.97;;;11.53;45.51
34241;BME280;20503;50.200;19.508;2024-02-15T01:33:45;101727.65;;;11.73;45.99
34241;BME280;20503;50.200;19.508;2024-02-15T01:34:47;101729.90;;;11.92;45.37
34241;BME280;20503;50.200;19.508;2024-02-15T01:35:52;101724.84;;;12.11;44.89
34241;BME280;20503;50.200;19.508;2024-02-15T01:36:54;101730.26;;;12.11;45.12
34241;BME280;20503;50.200;19.508;2024-02-15T01:37:55;101725.41;;;12.27;45.11
34241;BME280;20503;50.200;19.508;2024-02-15T01:38:56;101727.59;;;12.46;43.90
34241;BME280;20503;50.200;19.508;2024-02-15T01:39:57;101725.98;;;12.44;44.21
34241;BME280;20503;50.200;19.508;2024-02-15T01:40:59;101720.50;;;12.32;44.58
34241;BME280;20503;50.200;19.508;2024-02-15T01:42:00;101722.63;;;12.40;44.31
34241;BME280;20503;50.200;19.508;2024-02-15T01:43:03;101722.13;;;12.35;44.91
34241;BME280;20503;50.200;19.508;2024-02-15T01:44:06;101729.63;;;12.31;44.84
34241;BME280;20503;50.200;19.508;2024-02-15T01:45:08;101723.34;;;12.31;44.49
34241;BME280;20503;50.200;19.508;2024-02-15T01:46:14;101720.42;;;12.45;44.55
34241;BME280;20503;50.200;19.508;2024-02-15T01:47:17;101721.02;;;12.14;45.24
34241;BME280;20503;50.200;19.508;2024-02-15T01:48:20;101727.65;;;12.09;45.07
34241;BME280;20503;50.200;19.508;2024-02-15T01:49:22;101714.45;;;12.29;44.91
34241;BME280;20503;50.200;19.508;2024-02-15T01:50:43;101726.55;;;12.36;44.75
34241;BME280;20503;50.200;19.508;2024-02-15T01:51:45;101716.59;;;12.37;44.41
34241;BME280;20503;50.200;19.508;2024-02-15T01:52:48;101719.14;;;12.03;45.47
34241;BME280;20503;50.200;19.508;2024-02-15T01:53:53;101717.80;;;12.08;45.65
34241;BME280;20503;50.200;19.508;2024-02-15T01:54:55;101726.97;;;11.95;45.89
34241;BME280;20503;50.200;19.508;2024-02-15T01:55:58;101726.72;;;12.22;45.50
34241;BME280;20503;50.200;19.508;2024-02-15T01:57:01;101718.16;;;12.04;45.59
34241;BME280;20503;50.200;19.508;2024-02-15T01:58:03;101709.96;;;12.17;45.78
34241;BME280;20503;50.200;19.508;2024-02-15T01:59:06;101720.38;;;12.34;45.42
34241;BME280;20503;50.200;19.508;2024-02-15T02:00:09;101716.00;;;12.44;44.67
34241;BME280;20503;50.200;19.508;2024-02-15T02:01:13;101713.55;;;12.52;44.98
34241;BME280;20503;50.200;19.508;2024-02-15T02:02:16;101708.91;;;12.66;44.17
34241;BME280;20503;50.200;19.508;2024-02-15T02:03:21;101709.98;;;12.52;44.98
34241;BME280;20503;50.200;19.508;2024-02-15T02:04:23;101700.13;;;11.79;45.82
34241;BME280;20503;50.200;19.508;2024-02-15T02:05:24;101708.27;;;11.79;45.72
34241;BME280;20503;50.200;19.508;2024-02-15T02:06:26;101709.52;;;11.99;46.07
34241;BME280;20503;50.200;19.508;2024-02-15T02:07:28;101707.73;;;12.10;45.91
34241;BME280;20503;50.200;19.508;2024-02-15T02:08:31;101707.36;;;12.39;45.56
34241;BME280;20503;50.200;19.508;2024-02-15T02:09:32;101704.59;;;12.28;45.39
34241;BME280;20503;50.200;19.508;2024-02-15T02:10:33;101705.73;;;12.37;44.83
34241;BME280;20503;50.200;19.508;2024-02-15T02:11:34;101703.73;;;12.27;45.43
34241;BME280;20503;50.200;19.508;2024-02-15T02:12:36;101706.52;;;11.91;46.00
34241;BME280;20503;50.200;19.508;2024-02-15T02:13:37;101702.19;;;12.12;45.81
34241;BME280;20503;50.200;19.508;2024-02-15T02:14:38;101698.48;;;12.13;45.63
34241;BME280;20503;50.200;19.508;2024-02-15T02:15:40;101698.54;;;12.24;45.16
34241;BME280;20503;50.200;19.508;2024-02-15T02:16:41;101696.31;;;11.81;46.40
34241;BME280;20503;50.200;19.508;2024-02-15T02:18:01;101705.31;;;11.95;46.09
34241;BME280;20503;50.200;19.508;2024-02-15T02:19:09;101700.46;;;11.87;46.09
34241;BME280;20503;50.200;19.508;2024-02-15T02:20:11;101692.79;;;12.05;45.98
34241;BME280;20503;50.200;19.508;2024-02-15T02:21:14;101702.75;;;12.28;45.40
34241;BME280;20503;50.200;19.508;2024-02-15T02:22:16;101701.45;;;12.45;44.93
34241;BME280;20503;50.200;19.508;2024-02-15T02:23:21;101693.23;;;12.58;44.45
34241;BME280;20503;50.200;19.508;2024-02-15T02:24:28;101697.16;;;12.54;44.51
34241;BME280;20503;50.200;19.508;2024-02-15T02:25:30;101694.49;;;12.30;44.71
34241;BME280;20503;50.200;19.508;2024-02-15T02:26:31;101704.38;;;12.07;45.39
34241;BME280;20503;50.200;19.508;2024-02-15T02:27:52;101707.90;;;11.96;45.76
34241;BME280;20503;50.200;19.508;2024-02-15T02:28:54;101704.45;;;11.94;45.88
34241;BME280;20503;50.200;19.508;2024-02-15T02:29:55;101692.63;;;11.95;45.36
34241;BME280;20503;50.200;19.508;2024-02-15T02:31:00;101692.85;;;11.92;45.89
34241;BME280;20503;50.200;19.508;2024-02-15T02:32:01;101694.21;;;12.22;45.45
34241;BME280;20503;50.200;19.508;2024-02-15T02:33:03;101700.80;;;12.30;44.95
34241;BME280;20503;50.200;19.508;2024-02-15T02:34:09;101694.13;;;11.99;46.50
34241;BME280;20503;50.200;19.508;2024-02-15T02:35:11;101693.77;;;12.28;45.29
34241;BME280;20503;50.200;19.508;2024-02-15T02:36:16;101697.73;;;12.35;45.15
34241;BME280;20503;50.200;19.508;2024-02-15T02:37:19;101689.99;;;12.06;45.71
34241;BME280;20503;50.200;19.508;2024-02-15T02:38:20;101700.80;;;12.30;44.91
34241;BME280;20503;50.200;19.508;2024-02-15T02:39:21;101694.75;;;12.27;44.88
34241;BME280;20503;50.200;19.508;2024-02-15T02:40:23;101697.70;;;12.00;45.75
34241;BME280;20503;50.200;19.508;2024-02-15T02:41:26;101698.20;;;12.05;45.56
34241;BME280;20503;50.200;19.508;2024-02-15T02:42:27;101696.41;;;12.17;45.58
34241;BME280;20503;50.200;19.508;2024-02-15T02:43:29;101696.75;;;12.36;45.13
34241;BME280;20503;50.200;19.508;2024-02-15T02:44:30;101692.73;;;12.53;45.06
34241;BME280;20503;50.200;19.508;2024-02-15T02:45:32;101696.20;;;12.66;44.54
34241;BME280;20503;50.200;19.508;2024-02-15T02:46:33;101694.25;;;12.68;43.42
34241;BME280;20503;50.200;19.508;2024-02-15T02:47:35;101690.69;;;12.68;44.17
34241;BME280;20503;50.200;19.508;2024-02-15T02:48:38;101698.58;;;12.82;43.51
34241;BME280;20503;50.200;19.508;2024-02-15T02:49:41;101695.02;;;12.81;43.99
34241;BME280;20503;50.200;19.508;2024-02-15T02:50:43;101697.73;;;12.81;43.98
34241;BME280;20503;50.200;19.508;2024-02-15T02:52:04;101700.13;;;12.62;44.36
34241;BME280;20503;50.200;19.508;2024-02-15T02:53:05;101694.49;;;12.30;44.92
34241;BME280;20503;50.200;19.508;2024-02-15T02:54:06;101695.30;;;12.43;45.16
34241;BME280;20503;50.200;19.508;2024-02-15T02:55:08;101689.88;;;12.43;44.51
34241;BME280;20503;50.200;19.508;2024-02-15T02:56:09;101683.61;;;12.54;44.42
34241;BME280;20503;50.200;19.508;2024-02-15T02:57:10;101690.78;;;12.55;44.63
34241;BME280;20503;50.200;19.508;2024-02-15T02:58:12;101682.52;;;12.56;44.54
34241;BME280;20503;50.200;19.508;2024-02-15T02:59:15;101695.61;;;12.63;44.96
34241;BME280;20503;50.200;19.508;2024-02-15T03:00:18;101693.68;;;12.41;45.26
34241;BME280;20503;50.200;19.508;2024-02-15T03:01:23;101687.55;;;12.15;46.18
34241;BME280;20503;50.200;19.508;2024-02-15T03:02:27;101699.30;;;12.26;45.86
34241;BME280;20503;50.200;19.508;2024-02-15T03:03:31;101694.63;;;12.28;45.36
34241;BME280;20503;50.200;19.508;2024-02-15T03:04:32;101693.92;;;12.14;45.92
34241;BME280;20503;50.200;19.508;2024-02-15T03:05:33;101698.14;;;12.18;45.88
34241;BME280;20503;50.200;19.508;2024-02-15T03:06:35;101697.41;;;11.92;46.58
34241;BME280;20503;50.200;19.508;2024-02-15T03:07:36;101700.18;;;12.03;46.69
34241;BME280;20503;50.200;19.508;2024-02-15T03:08:38;101697.05;;;11.96;46.20
34241;BME280;20503;50.200;19.508;2024-02-15T03:10:07;101698.51;;;11.76;46.94
34241;BME280;20503;50.200;19.508;2024-02-15T03:11:27;101700.46;;;11.87;46.87
34241;BME280;20503;50.200;19.508;2024-02-15T03:12:28;101696.20;;;11.96;46.49
34241;BME280;20503;50.200;19.508;2024-02-15T03:13:31;101693.08;;;11.89;45.90
34241;BME280;20503;50.200;19.508;2024-02-15T03:14:32;101687.09;;;11.97;46.68
34241;BME280;20503;50.200;19.508;2024-02-15T03:15:36;101686.38;;;11.82;46.62
34241;BME280;20503;50.200;19.508;2024-02-15T03:16:37;101684.88;;;11.78;46.54
34241;BME280;20503;50.200;19.508;2024-02-15T03:17:40;101686.35;;;11.95;46.32
34241;BME280;20503;50.200;19.508;2024-02-15T03:18:42;101689.41;;;11.77;46.93
34241;BME280;20503;50.200;19.508;2024-02-15T03:19:44;101688.15;;;11.70;47.56
34241;BME280;20503;50.200;19.508;2024-02-15T03:20:45;101685.81;;;12.14;46.70
34241;BME280;20503;50.200;19.508;2024-02-15T03:21:47;101688.36;;;12.04;46.20
34241;BME280;20503;50.200;19.508;2024-02-15T03:24:00;101687.91;;;12.10;46.00
34241;BME280;20503;50.200;19.508;2024-02-15T03:25:17;101692.63;;;11.95;46.50
34241;BME280;20503;50.200;19.508;2024-02-15T03:27:38;101681.38;;;11.89;46.23
34241;BME280;20503;50.200;19.508;2024-02-15T03:28:41;101677.81;;;11.88;47.40
34241;BME280;20503;50.200;19.508;2024-02-15T03:29:42;101682.02;;;11.92;46.61
34241;BME280;20503;50.200;19.508;2024-02-15T03:30:44;101680.74;;;12.09;46.18
34241;BME280;20503;50.200;19.508;2024-02-15T03:31:46;101678.14;;;11.47;47.66
34241;BME280;20503;50.200;19.508;2024-02-15T03:32:50;101687.46;;;11.43;47.56
34241;BME280;20503;50.200;19.508;2024-02-15T03:33:54;101692.72;;;11.57;47.41
34241;BME280;20503;50.200;19.508;2024-02-15T03:34:55;101697.62;;;11.52;47.41
34241;BME280;20503;50.200;19.508;2024-02-15T03:35:57;101689.77;;;11.23;48.16
34241;BME280;20503;50.200;19.508;2024-02-15T03:37:09;101694.41;;;11.83;47.18
34241;BME280;20503;50.200;19.508;2024-02-15T03:38:11;101683.80;;;12.04;46.72
34241;BME280;20503;50.200;19.508;2024-02-15T03:39:14;101689.43;;;12.25;45.95
34241;BME280;20503;50.200;19.508;2024-02-15T03:40:15;101690.47;;;12.35;45.03
34241;BME280;20503;50.200;19.508;2024-02-15T03:41:16;101693.62;;;12.18;45.86
34241;BME280;20503;50.200;19.508;2024-02-15T03:42:18;101693.77;;;12.04;46.16
34241;BME280;20503;50.200;19.508;2024-02-15T03:43:19;101688.63;;;12.12;45.49
34241;BME280;20503;50.200;19.508;2024-02-15T03:44:30;101692.90;;;12.27;45.86
34241;BME280;20503;50.200;19.508;2024-02-15T03:45:32;101697.95;;;12.32;45.49
34241;BME280;20503;50.200;19.508;2024-02-15T03:46:33;101685.50;;;12.29;45.62
34241;BME280;20503;50.200;19.508;2024-02-15T03:47:35;101687.94;;;12.21;45.51
34241;BME280;20503;50.200;19.508;2024-02-15T03:48:37;101689.69;;;12.22;46.09
34241;BME280;20503;50.200;19.508;2024-02-15T03:49:39;101689.97;;;12.42;45.07
34241;BME280;20503;50.200;19.508;2024-02-15T03:50:43;101695.80;;;12.48;45.30
34241;BME280;20503;50.200;19.508;2024-02-15T03:51:45;101696.30;;;12.53;44.83
34241;BME280;20503;50.200;19.508;2024-02-15T03:52:48;101693.00;;;12.61;45.07
34241;BME280;20503;50.200;19.508;2024-02-15T03:53:51;101701.86;;;12.52;44.84
34241;BME280;20503;50.200;19.508;2024-02-15T03:55:03;101694.55;;;12.41;45.48
34241;BME280;20503;50.200;19.508;2024-02-15T03:56:11;101700.05;;;12.04;46.17
34241;BME280;20503;50.200;19.508;2024-02-15T03:57:12;101695.10;;;12.22;46.43
34241;BME280;20503;50.200;19.508;2024-02-15T03:58:30;101705.86;;;12.35;45.71
34241;BME280;20503;50.200;19.508;2024-02-15T03:59:33;101695.97;;;12.23;45.57
34241;BME280;20503;50.200;19.508;2024-02-15T04:00:36;101693.05;;;12.37;45.59
34241;BME280;20503;50.200;19.508;2024-02-15T04:01:41;101688.20;;;12.18;45.98
34241;BME280;20503;50.200;19.508;2024-02-15T04:02:43;101683.93;;;12.03;46.25
34241;BME280;20503;50.200;19.508;2024-02-15T04:03:44;101687.38;;;11.68;46.65
34241;BME280;20503;50.200;19.508;2024-02-15T04:04:45;101686.35;;;11.95;47.21
34241;BME280;20503;50.200;19.508;2024-02-15T04:05:48;101683.16;;;12.01;46.22
34241;BME280;20503;50.200;19.508;2024-02-15T04:06:50;101684.02;;;12.01;46.47
34241;BME280;20503;50.200;19.508;2024-02-15T04:07:55;101687.20;;;12.19;45.95
34241;BME280;20503;50.200;19.508;2024-02-15T04:09:05;101687.48;;;12.27;45.92
34241;BME280;20503;50.200;19.508;2024-02-15T04:10:08;101687.35;;;12.29;45.15
34241;BME280;20503;50.200;19.508;2024-02-15T04:11:25;101686.92;;;12.11;46.10
34241;BME280;20503;50.200;19.508;2024-02-15T04:12:53;101694.27;;;12.33;45.81
34241;BME280;20503;50.200;19.508;2024-02-15T04:13:54;101682.29;;;12.24;45.91
34241;BME280;20503;50.200;19.508;2024-02-15T04:14:59;101682.34;;;12.35;45.21
34241;BME280;20503;50.200;19.508;2024-02-15T04:16:31;101689.02;;;12.54;45.32
34241;BME280;20503;50.200;19.508;2024-02-15T04:17:36;101675.38;;;12.55;45.81
34241;BME280;20503;50.200;19.508;2024-02-15T04:18:37;101678.61;;;12.72;44.42
34241;BME280;20503;50.200;19.508;2024-02-15T04:19:39;101682.55;;;12.68;45.00
34241;BME280;20503;50.200;19.508;2024-02-15T04:20:41;101683.01;;;12.62;44.72
34241;BME280;20503;50.200;19.508;2024-02-15T04:21:47;101682.66;;;12.55;44.99
34241;BME280;20503;50.200;19.508;2024-02-15T04:23:08;101684.36;;;12.56;45.08
34241;BME280;20503;50.200;19.508;2024-02-15T04:24:27;101693.53;;;12.31;45.71
34241;BME280;20503;50.200;19.508;2024-02-15T04:25:45;101698.14;;;11.94;46.33
34241;BME280;20503;50.200;19.508;2024-02-15T04:26:52;101688.15;;;11.70;46.84
34241;BME280;20503;50.200;19.508;2024-02-15T04:27:55;101683.12;;;11.77;47.78
34241;BME280;20503;50.200;19.508;2024-02-15T04:29:00;101689.80;;;11.97;47.04
34241;BME280;20503;50.200;19.508;2024-02-15T04:30:03;101687.68;;;11.76;47.09
34241;BME280;20503;50.200;19.508;2024-02-15T04:31:05;101689.86;;;11.84;47.78
34241;BME280;20503;50.200;19.508;2024-02-15T04:32:10;101683.80;;;12.04;46.44
34241;BME280;20503;50.200;19.508;2024-02-15T04:33:13;101692.62;;;12.19;46.59
34241;BME280;20503;50.200;19.508;2024-02-15T04:34:18;101697.53;;;11.90;46.43
34241;BME280;20503;50.200;19.508;2024-02-15T04:35:19;101693.15;;;12.00;46.16
34241;BME280;20503;50.200;19.508;2024-02-15T04:36:21;101697.41;;;12.16;46.19
34241;BME280;20503;50.200;19.508;2024-02-15T04:37:28;101699.93;;;12.06;45.75
34241;BME280;20503;50.200;19.508;2024-02-15T04:38:33;101702.25;;;11.99;46.33
34241;BME280;20503;50.200;19.508;2024-02-15T04:39:37;101693.65;;;12.05;46.30
34241;BME280;20503;50.200;19.508;2024-02-15T04:40:39;101702.35;;;11.61;47.33
34241;BME280;20503;50.200;19.508;2024-02-15T04:41:40;101699.34;;;11.90;47.01
34241;BME280;20503;50.200;19.508;2024-02-15T04:42:42;101695.84;;;12.24;46.08
34241;BME280;20503;50.200;19.508;2024-02-15T04:43:48;101690.73;;;12.44;45.31
34241;BME280;20503;50.200;19.508;2024-02-15T04:44:49;101692.69;;;12.42;45.20
34241;BME280;20503;50.200;19.508;2024-02-15T04:45:56;101699.05;;;12.65;44.97
34241;BME280;20503;50.200;19.508;2024-02-15T04:46:58;101696.73;;;12.71;44.64
34241;BME280;20503;50.200;19.508;2024-02-15T04:47:59;101702.52;;;12.67;44.74
34241;BME280;20503;50.200;19.508;2024-02-15T04:49:03;101693.52;;;12.77;45.00
34241;BME280;20503;50.200;19.508;2024-02-15T04:50:09;101696.97;;;12.33;45.76
34241;BME280;20503;50.200;19.508;2024-02-15T04:51:11;101694.09;;;12.47;45.50
34241;BME280;20503;50.200;19.508;2024-02-15T04:52:13;101690.62;;;12.10;46.20
34241;BME280;20503;50.200;19.508;2024-02-15T04:53:15;101699.70;;;12.09;46.23
34241;BME280;20503;50.200;19.508;2024-02-15T04:54:17;101703.23;;;12.22;46.76
34241;BME280;20503;50.200;19.508;2024-02-15T04:55:19;101709.21;;;12.39;45.56
34241;BME280;20503;50.200;19.508;2024-02-15T04:56:23;101698.79;;;12.56;44.89
34241;BME280;20503;50.200;19.508;2024-02-15T04:57:25;101703.89;;;12.37;45.85
34241;BME280;20503;50.200;19.508;2024-02-15T04:58:30;101699.81;;;12.31;45.17
34241;BME280;20503;50.200;19.508;2024-02-15T04:59:33;101701.30;;;12.35;45.64
34241;BME280;20503;50.200;19.508;2024-02-15T05:00:36;101701.59;;;12.44;45.65
34241;BME280;20503;50.200;19.508;2024-02-15T05:01:38;101702.52;;;12.31;46.16
34241;BME280;20503;50.200;19.508;2024-02-15T05:02:43;101705.65;;;12.49;46.35
34241;BME280;20503;50.200;19.508;2024-02-15T05:03:47;101705.69;;;12.60;45.28
34241;BME280;20503;50.200;19.508;2024-02-15T05:04:48;101710.98;;;12.62;44.98
34241;BME280;20503;50.200;19.508;2024-02-15T05:05:50;101709.08;;;12.40;45.86
34241;BME280;20503;50.200;19.508;2024-02-15T05:06:52;101702.52;;;12.31;45.29
34241;BME280;20503;50.200;19.508;2024-02-15T05:07:54;101706.17;;;12.19;46.75
34241;BME280;20503;50.200;19.508;2024-02-15T05:09:14;101715.66;;;12.25;46.32
34241;BME280;20503;50.200;19.508;2024-02-15T05:10:43;101713.36;;;12.31;46.14
34241;BME280;20503;50.200;19.508;2024-02-15T05:11:46;101708.27;;;12.51;45.74
34241;BME280;20503;50.200;19.508;2024-02-15T05:12:49;101708.37;;;12.49;46.05
34241;BME280;20503;50.200;19.508;2024-02-15T05:13:51;101718.62;;;12.57;46.17
34241;BME280;20503;50.200;19.508;2024-02-15T05:14:54;101706.73;;;12.35;45.92
34241;BME280;20503;50.200;19.508;2024-02-15T05:15:55;101710.09;;;12.15;46.97
34241;BME280;20503;50.200;19.508;2024-02-15T05:16:56;101711.12;;;12.01;47.29
34241;BME280;20503;50.200;19.508;2024-02-15T05:17:58;101708.76;;;11.97;47.78
34241;BME280;20503;50.200;19.508;2024-02-15T05:19:02;101709.59;;;12.10;46.88
34241;BME280;20503;50.200;19.508;2024-02-15T05:20:13;101721.43;;;11.96;47.31
34241;BME280;20503;50.200;19.508;2024-02-15T05:21:24;101722.99;;;11.88;47.50
34241;BME280;20503;50.200;19.508;2024-02-15T05:22:26;101704.19;;;12.21;47.19
34241;BME280;20503;50.200;19.508;2024-02-15T05:23:30;101716.88;;;12.21;47.07
34241;BME280;20503;50.200;19.508;2024-02-15T05:24:31;101713.78;;;11.90;47.53
34241;BME280;20503;50.200;19.508;2024-02-15T05:25:33;101712.58;;;11.94;47.52
34241;BME280;20503;50.200;19.508;2024-02-15T05:26:36;101711.23;;;12.00;47.44
34241;BME280;20503;50.200;19.508;2024-02-15T05:27:37;101723.64;;;12.15;47.16
34241;BME280;20503;50.200;19.508;2024-02-15T05:28:38;101712.95;;;12.25;47.71
34241;BME280;20503;50.200;19.508;2024-02-15T05:29:39;101716.98;;;12.43;46.50
34241;BME280;20503;50.200;19.508;2024-02-15T05:30:44;101716.45;;;12.38;46.24
34241;BME280;20503;50.200;19.508;2024-02-15T05:31:45;101713.87;;;12.72;46.15